createdAt,value
2019-03-23T00:02:04.110Z,12.30
2019-03-23T00:05:01.346Z,12.40
2019-03-23T00:07:59.508Z,12.60
2019-03-23T00:10:56.166Z,13.23
2019-03-23T00:13:52.341Z,11.90
2019-03-23T00:16:49.362Z,12.30
2019-03-23T00:19:46.620Z,14.25
2019-03-23T00:22:43.846Z,14.00
2019-03-23T00:25:40.180Z,12.50
2019-03-23T00:28:39.511Z,12.00
2019-03-23T00:31:35.138Z,12.70
2019-03-23T00:34:33.178Z,13.03
2019-03-23T00:37:30.262Z,12.23
2019-03-23T00:40:27.408Z,12.40
2019-03-23T00:43:24.551Z,13.07
2019-03-23T00:46:20.859Z,13.25
2019-03-23T00:49:18.579Z,12.18
2019-03-23T00:52:14.885Z,13.17
2019-03-23T00:55:13.072Z,13.25
2019-03-23T00:58:10.222Z,12.90
2019-03-23T01:01:07.692Z,13.17
2019-03-23T01:04:05.864Z,12.77
2019-03-23T01:07:02.984Z,12.82
2019-03-23T01:10:00.329Z,12.40
2019-03-23T01:12:56.256Z,12.40
2019-03-23T01:15:53.564Z,11.87
2019-03-23T01:18:49.283Z,12.50
2019-03-23T01:21:47.580Z,13.13
2019-03-23T01:24:44.412Z,12.60
2019-03-23T01:27:40.190Z,13.27
2019-03-23T01:30:37.342Z,12.50
2019-03-23T01:33:33.299Z,13.50
2019-03-23T01:36:31.660Z,12.73
2019-03-23T01:39:28.648Z,12.07
2019-03-23T01:42:25.994Z,13.53
2019-03-23T01:45:20.890Z,12.90
2019-03-23T01:48:20.436Z,13.40
2019-03-23T01:51:18.746Z,13.00
2019-03-23T01:54:16.863Z,13.60
2019-03-23T01:57:14.126Z,13.70
2019-03-23T02:00:11.184Z,13.53
2019-03-23T02:03:08.538Z,13.37
2019-03-23T02:06:05.699Z,13.20
2019-03-23T02:09:04.778Z,12.30
2019-03-23T02:12:01.908Z,12.90
2019-03-23T02:14:57.953Z,13.67
2019-03-23T02:17:55.268Z,13.23
2019-03-23T02:20:51.916Z,12.05
2019-03-23T02:23:49.031Z,12.23
2019-03-23T02:26:45.156Z,13.47
2019-03-23T02:29:43.470Z,12.90
2019-03-23T02:32:39.702Z,12.67
2019-03-23T02:35:36.677Z,12.90
2019-03-23T02:38:32.889Z,12.23
2019-03-23T02:41:29.961Z,13.90
2019-03-23T02:44:27.427Z,13.83
2019-03-23T02:47:23.735Z,12.60
2019-03-23T02:50:19.931Z,13.90
2019-03-23T02:53:17.170Z,13.13
2019-03-23T02:56:15.228Z,13.33
2019-03-23T02:59:12.397Z,14.30
2019-03-23T03:02:09.750Z,12.83
2019-03-23T03:05:05.954Z,12.10
2019-03-23T03:08:03.197Z,12.97
2019-03-23T03:11:03.551Z,13.30
2019-03-23T03:13:59.665Z,12.33
2019-03-23T03:16:56.775Z,12.93
2019-03-23T03:19:52.120Z,14.10
2019-03-23T03:22:50.363Z,13.00
2019-03-23T03:25:46.525Z,14.13
2019-03-23T03:28:45.037Z,12.33
2019-03-23T03:31:42.264Z,12.17
2019-03-23T03:34:39.797Z,13.40
2019-03-23T03:37:36.119Z,11.83
2019-03-23T03:40:34.410Z,12.60
2019-03-23T03:43:31.546Z,11.40
2019-03-23T03:46:27.751Z,13.17
2019-03-23T03:49:25.072Z,13.40
2019-03-23T03:52:21.399Z,12.40
2019-03-23T03:55:19.631Z,14.50
2019-03-23T03:58:15.739Z,13.10
2019-03-23T04:01:12.878Z,13.77
2019-03-23T04:04:10.232Z,12.60
2019-03-23T04:07:06.612Z,12.80
2019-03-23T04:10:03.451Z,12.77
2019-03-23T04:12:59.283Z,12.40
2019-03-23T04:15:56.244Z,12.57
2019-03-23T04:18:53.152Z,13.70
2019-03-23T04:21:52.685Z,13.93
2019-03-23T04:24:49.908Z,13.50
2019-03-23T04:27:46.031Z,15.80
2019-03-23T04:30:48.115Z,13.67
2019-03-23T04:33:44.328Z,14.50
2019-03-23T04:36:42.832Z,13.73
2019-03-23T04:39:39.128Z,15.40
2019-03-23T04:42:37.225Z,17.37
2019-03-23T04:45:33.282Z,14.13
2019-03-23T04:48:30.431Z,16.30
2019-03-23T04:51:27.440Z,17.12
2019-03-23T04:54:23.513Z,16.10
2019-03-23T04:57:20.655Z,15.40
2019-03-23T05:00:16.900Z,14.80
2019-03-23T05:03:14.050Z,15.80
2019-03-23T05:06:10.479Z,17.33
2019-03-23T05:09:07.597Z,16.00
2019-03-23T05:12:06.013Z,17.80
2019-03-23T05:15:03.015Z,18.03
2019-03-23T05:17:59.269Z,18.40
2019-03-23T05:20:56.400Z,17.47
2019-03-23T05:23:54.602Z,20.70
2019-03-23T05:26:50.941Z,25.90
2019-03-23T05:29:48.046Z,23.80
2019-03-23T05:32:47.170Z,21.40
2019-03-23T05:35:43.035Z,20.90
2019-03-23T05:38:44.601Z,21.30
2019-03-23T05:41:37.187Z,20.80
2019-03-23T05:44:34.579Z,19.70
2019-03-23T05:47:29.897Z,17.90
2019-03-23T05:50:26.986Z,18.53
2019-03-23T05:53:25.643Z,15.67
2019-03-23T05:56:22.811Z,19.60
2019-03-23T05:59:19.151Z,18.80
2019-03-23T06:02:18.518Z,17.77
2019-03-23T06:05:15.704Z,17.13
2019-03-23T06:08:11.446Z,21.23
2019-03-23T06:11:08.603Z,15.77
2019-03-23T06:14:05.948Z,19.43
2019-03-23T06:17:04.388Z,20.82
2019-03-23T06:20:00.349Z,18.07
2019-03-23T06:22:59.525Z,18.97
2019-03-23T06:25:55.673Z,22.53
2019-03-23T06:28:52.881Z,19.03
2019-03-23T06:31:49.871Z,21.00
2019-03-23T06:34:45.960Z,17.77
2019-03-23T06:37:43.148Z,22.23
2019-03-23T06:40:39.487Z,20.50
2019-03-23T06:43:37.837Z,20.27
2019-03-23T06:46:34.993Z,19.10
2019-03-23T06:49:30.371Z,17.87
2019-03-23T06:52:27.372Z,19.07
2019-03-23T06:55:23.421Z,18.15
2019-03-23T06:58:20.562Z,19.82
2019-03-23T07:01:16.778Z,22.27
2019-03-23T07:04:14.668Z,20.10
2019-03-23T07:07:11.856Z,19.20
2019-03-23T07:10:08.058Z,20.10
2019-03-23T07:13:06.538Z,18.57
2019-03-23T07:16:03.634Z,20.60
2019-03-23T07:19:01.641Z,18.90
2019-03-23T07:21:58.880Z,20.50
2019-03-23T07:24:57.030Z,22.60
2019-03-23T07:27:54.286Z,22.90
2019-03-23T07:30:50.560Z,19.70
2019-03-23T07:33:48.939Z,19.00
2019-03-23T07:36:44.800Z,19.50
2019-03-23T07:39:41.563Z,19.10
2019-03-23T07:42:37.633Z,18.80
2019-03-23T07:45:35.292Z,19.30
2019-03-23T07:48:32.448Z,18.40
2019-03-23T07:51:28.958Z,18.43
2019-03-23T07:54:28.386Z,17.93
2019-03-23T07:57:24.824Z,18.70
2019-03-23T08:00:21.840Z,19.10
2019-03-23T08:03:18.895Z,18.40
2019-03-23T08:06:15.166Z,18.67
2019-03-23T08:09:20.071Z,18.40
2019-03-23T08:12:08.209Z,19.50
2019-03-23T08:15:05.831Z,19.12
2019-03-23T08:18:03.133Z,19.03
2019-03-23T08:21:00.303Z,19.67
2019-03-23T08:24:00.603Z,19.75
2019-03-23T08:26:56.841Z,19.77
2019-03-23T08:29:55.110Z,19.65
2019-03-23T08:32:51.491Z,20.77
2019-03-23T08:35:49.931Z,20.10
2019-03-23T08:38:46.028Z,19.40
2019-03-23T08:41:42.943Z,20.27
2019-03-23T08:44:39.875Z,20.00
2019-03-23T08:47:36.654Z,20.80
2019-03-23T08:50:32.995Z,19.33
2019-03-23T08:53:31.354Z,21.30
2019-03-23T08:56:28.599Z,20.20
2019-03-23T08:59:24.221Z,21.10
2019-03-23T09:02:21.917Z,21.43
2019-03-23T09:05:18.593Z,21.80
2019-03-23T09:08:15.709Z,21.07
2019-03-23T09:11:20.259Z,22.73
2019-03-23T09:14:08.841Z,23.07
2019-03-23T09:17:04.753Z,22.90
2019-03-23T09:20:02.076Z,23.27
2019-03-23T09:23:00.447Z,22.23
2019-03-23T09:25:57.606Z,21.90
2019-03-23T09:28:54.790Z,22.23
2019-03-23T09:31:51.095Z,22.30
2019-03-23T09:34:49.315Z,24.13
2019-03-23T09:37:45.676Z,23.45
2019-03-23T09:40:43.322Z,22.53
2019-03-23T09:43:39.122Z,23.57
2019-03-23T09:46:37.038Z,23.87
2019-03-23T09:49:34.247Z,21.97
2019-03-23T09:52:29.966Z,24.70
2019-03-23T09:55:28.785Z,24.47
2019-03-23T09:58:24.264Z,25.63
2019-03-23T10:01:21.762Z,26.57
2019-03-23T10:04:17.805Z,26.20
2019-03-23T10:07:14.890Z,25.43
2019-03-23T10:10:21.390Z,25.63
2019-03-23T10:13:07.653Z,25.60
2019-03-23T10:16:05.890Z,24.27
2019-03-23T10:19:03.009Z,25.37
2019-03-23T10:22:00.227Z,26.47
2019-03-23T10:24:58.747Z,25.40
2019-03-23T10:27:56.853Z,27.60
2019-03-23T10:30:54.004Z,26.80
2019-03-23T10:33:50.194Z,27.87
2019-03-23T10:36:48.674Z,26.70
2019-03-23T10:39:44.309Z,27.57
2019-03-23T10:42:43.173Z,26.80
2019-03-23T10:45:44.146Z,26.90
2019-03-23T10:48:34.744Z,28.30
2019-03-23T10:51:31.678Z,28.30
2019-03-23T10:54:28.163Z,27.37
2019-03-23T10:57:26.577Z,26.90
2019-03-23T11:00:39.614Z,26.93
2019-03-23T11:03:38.927Z,27.17
2019-03-23T11:06:37.362Z,28.35
2019-03-23T11:09:34.489Z,27.27
2019-03-23T11:12:30.893Z,27.80
2019-03-23T11:15:28.062Z,27.98
2019-03-23T11:18:26.380Z,28.67
2019-03-23T11:21:22.453Z,27.48
2019-03-23T11:24:19.966Z,30.50
2019-03-23T11:27:17.309Z,28.17
2019-03-23T11:30:14.509Z,27.90
2019-03-23T11:33:10.817Z,29.67
2019-03-23T11:36:08.126Z,28.40
2019-03-23T11:39:05.419Z,29.03
2019-03-23T11:42:01.693Z,30.70
2019-03-23T11:44:59.031Z,26.63
2019-03-23T11:47:56.016Z,28.90
2019-03-23T11:50:53.467Z,28.87
2019-03-23T11:53:49.418Z,28.27
2019-03-23T11:56:47.608Z,28.17
2019-03-23T11:59:43.196Z,29.27
2019-03-23T12:02:40.371Z,30.33
2019-03-23T12:05:37.530Z,30.03
2019-03-23T12:08:34.850Z,29.90
2019-03-23T12:11:32.198Z,28.30
2019-03-23T12:14:28.641Z,29.53
2019-03-23T12:17:27.216Z,29.53
2019-03-23T12:20:23.487Z,29.45
2019-03-23T12:23:21.210Z,31.53
2019-03-23T12:26:19.263Z,30.50
2019-03-23T12:29:14.639Z,32.77
2019-03-23T12:32:11.784Z,33.20
2019-03-23T12:35:08.205Z,32.50
2019-03-23T12:38:10.515Z,32.17
2019-03-23T12:41:18.547Z,32.20
2019-03-23T12:44:03.783Z,32.27
2019-03-23T12:47:01.145Z,32.87
2019-03-23T12:49:57.371Z,35.80
2019-03-23T12:52:54.868Z,36.50
2019-03-23T12:55:51.126Z,32.87
2019-03-23T12:58:55.459Z,33.77
2019-03-23T13:01:51.612Z,32.63
2019-03-23T13:04:48.456Z,30.97
2019-03-23T13:07:46.367Z,32.27
2019-03-23T13:10:42.529Z,32.90
2019-03-23T13:13:40.655Z,34.43
2019-03-23T13:16:35.953Z,33.97
2019-03-23T13:19:34.344Z,32.60
2019-03-23T13:22:32.027Z,32.93
2019-03-23T13:25:29.259Z,32.33
2019-03-23T13:28:28.668Z,32.73
2019-03-23T13:31:24.898Z,32.00
2019-03-23T13:34:22.122Z,33.90
2019-03-23T13:37:17.037Z,35.23
2019-03-23T13:40:15.217Z,32.30
2019-03-23T13:43:11.624Z,35.10
2019-03-23T13:46:08.768Z,37.00
2019-03-23T13:49:12.734Z,36.50
2019-03-23T13:52:08.473Z,38.13
2019-03-23T13:55:05.704Z,35.20
2019-03-23T13:58:02.825Z,34.17
2019-03-23T14:00:59.895Z,32.23
2019-03-23T14:03:56.174Z,35.23
2019-03-23T14:06:53.328Z,32.60
2019-03-23T14:09:50.547Z,35.50
2019-03-23T14:12:47.720Z,35.60
2019-03-23T14:15:45.199Z,33.80
2019-03-23T14:18:42.852Z,34.20
2019-03-23T14:21:40.352Z,34.60
2019-03-23T14:24:36.479Z,33.77
2019-03-23T14:27:33.876Z,31.07
2019-03-23T14:30:31.233Z,33.42
2019-03-23T14:33:29.557Z,32.77
2019-03-23T14:36:25.842Z,31.30
2019-03-23T14:39:24.767Z,33.00
2019-03-23T14:42:21.481Z,31.37
2019-03-23T14:45:18.866Z,31.87
2019-03-23T14:48:15.993Z,31.03
2019-03-23T14:51:12.226Z,31.20
2019-03-23T14:54:09.443Z,30.67
2019-03-23T14:57:06.356Z,32.20
2019-03-23T15:00:04.810Z,30.37
2019-03-23T15:03:00.927Z,30.27
2019-03-23T15:05:58.174Z,30.87
2019-03-23T15:08:54.499Z,30.40
2019-03-23T15:11:51.372Z,30.30
2019-03-23T15:14:47.604Z,31.90
2019-03-23T15:17:48.930Z,31.43
2019-03-23T15:20:46.019Z,30.53
2019-03-23T15:23:44.074Z,30.33
2019-03-23T15:26:45.660Z,30.80
2019-03-23T15:29:43.193Z,29.20
2019-03-23T15:32:41.850Z,29.40
2019-03-23T15:35:37.813Z,31.27
2019-03-23T15:38:35.036Z,28.70
2019-03-23T15:41:32.410Z,27.87
2019-03-23T15:44:29.824Z,28.93
2019-03-23T15:47:28.130Z,29.10
2019-03-23T15:50:26.444Z,29.60
2019-03-23T15:53:24.913Z,31.23
2019-03-23T15:56:21.285Z,31.43
2019-03-23T15:59:19.523Z,30.80
2019-03-23T16:02:15.695Z,32.27
2019-03-23T16:05:14.139Z,32.33
2019-03-23T16:08:11.540Z,31.40
2019-03-23T16:11:08.503Z,32.53
2019-03-23T16:14:05.752Z,30.90
2019-03-23T16:17:03.145Z,31.40
2019-03-23T16:20:04.551Z,31.10
2019-03-23T16:23:00.813Z,29.07
2019-03-23T16:25:58.897Z,25.80
2019-03-23T16:28:56.382Z,27.13
2019-03-23T16:31:54.632Z,25.43
2019-03-23T16:34:52.794Z,24.50
2019-03-23T16:37:47.781Z,25.40
2019-03-23T16:40:46.056Z,24.90
2019-03-23T16:43:42.214Z,24.50
2019-03-23T16:46:38.522Z,25.17
2019-03-23T16:49:35.062Z,24.57
2019-03-23T16:52:32.325Z,25.97
2019-03-23T16:55:29.768Z,22.90
2019-03-23T16:58:27.148Z,24.70
2019-03-23T17:01:24.208Z,23.27
2019-03-23T17:04:21.438Z,24.10
2019-03-23T17:07:17.631Z,24.00
2019-03-23T17:10:13.970Z,24.30
2019-03-23T17:13:11.169Z,23.00
2019-03-23T17:16:08.371Z,24.50
2019-03-23T17:19:04.427Z,25.80
2019-03-23T17:22:02.581Z,23.83
2019-03-23T17:24:59.067Z,23.50
2019-03-23T17:27:56.349Z,22.97
2019-03-23T17:30:53.846Z,23.23
2019-03-23T17:33:50.968Z,22.33
2019-03-23T17:36:48.796Z,23.35
2019-03-23T17:39:45.802Z,27.63
2019-03-23T17:42:44.339Z,22.57
2019-03-23T17:45:40.525Z,23.87
2019-03-23T17:48:37.628Z,22.47
2019-03-23T17:51:35.979Z,20.00
2019-03-23T17:54:33.136Z,21.00
2019-03-23T17:57:30.086Z,20.43
2019-03-23T18:00:27.283Z,22.67
2019-03-23T18:03:23.871Z,22.87
2019-03-23T18:06:21.031Z,23.60
2019-03-23T18:09:22.027Z,21.90
2019-03-23T18:12:20.714Z,22.60
2019-03-23T18:15:16.797Z,23.83
2019-03-23T18:18:13.946Z,23.30
2019-03-23T18:21:09.671Z,35.80
2019-03-23T18:24:07.140Z,31.23
2019-03-23T18:27:03.253Z,26.90
2019-03-23T18:30:00.405Z,24.30
2019-03-23T18:32:58.448Z,25.13
2019-03-23T18:35:55.747Z,23.60
2019-03-23T18:38:52.815Z,24.00
2019-03-23T18:41:50.939Z,27.10
2019-03-23T18:44:48.030Z,26.20
2019-03-23T18:47:43.920Z,25.50
2019-03-23T18:50:42.718Z,24.90
2019-03-23T18:53:38.542Z,22.50
2019-03-23T18:56:37.665Z,21.80
2019-03-23T18:59:33.830Z,22.70
2019-03-23T19:02:30.550Z,22.23
2019-03-23T19:05:28.645Z,21.17
2019-03-23T19:08:26.341Z,28.63
2019-03-23T19:11:23.988Z,25.20
2019-03-23T19:14:20.138Z,25.00
2019-03-23T19:17:17.398Z,25.03
2019-03-23T19:20:13.970Z,25.00
2019-03-23T19:23:11.741Z,28.00
2019-03-23T19:26:08.845Z,26.27
2019-03-23T19:29:05.844Z,23.40
2019-03-23T19:32:02.158Z,20.37
2019-03-23T19:35:00.185Z,20.90
2019-03-23T19:37:56.950Z,20.30
2019-03-23T19:40:55.069Z,19.80
2019-03-23T19:43:52.149Z,21.43
2019-03-23T19:46:49.445Z,20.80
2019-03-23T19:49:45.759Z,19.97
2019-03-23T19:52:43.125Z,21.13
2019-03-23T19:55:40.643Z,19.60
2019-03-23T19:58:37.794Z,21.67
2019-03-23T20:01:34.227Z,19.43
2019-03-23T20:04:31.798Z,19.20
2019-03-23T20:07:33.070Z,19.67
2019-03-23T20:10:25.078Z,20.67
2019-03-23T20:13:21.786Z,20.50
2019-03-23T20:16:19.243Z,19.60
2019-03-23T20:19:15.075Z,20.13
2019-03-23T20:22:12.312Z,19.07
2019-03-23T20:25:09.571Z,18.82
2019-03-23T20:28:07.013Z,19.27
2019-03-23T20:31:03.086Z,20.30
2019-03-23T20:34:01.149Z,20.00
2019-03-23T20:36:57.299Z,19.77
2019-03-23T20:39:54.744Z,20.57
2019-03-23T20:42:53.259Z,20.70
2019-03-23T20:45:52.574Z,20.60
2019-03-23T20:48:49.747Z,20.20
2019-03-23T20:51:46.188Z,20.03
2019-03-23T20:54:43.592Z,19.47
2019-03-23T20:57:43.167Z,20.07
2019-03-23T21:00:39.569Z,20.27
2019-03-23T21:03:36.027Z,20.47
2019-03-23T21:06:31.851Z,21.30
2019-03-23T21:09:30.074Z,21.20
2019-03-23T21:12:27.390Z,21.17
2019-03-23T21:15:25.711Z,19.90
2019-03-23T21:18:24.155Z,20.30
2019-03-23T21:21:20.905Z,19.77
2019-03-23T21:24:19.077Z,20.67
2019-03-23T21:27:19.078Z,20.37
2019-03-23T21:30:15.447Z,21.27
2019-03-23T21:33:12.953Z,20.33
2019-03-23T21:36:10.038Z,19.53
2019-03-23T21:39:06.930Z,20.30
2019-03-23T21:42:03.909Z,20.20
2019-03-23T21:45:02.207Z,18.73
2019-03-23T21:47:58.474Z,21.30
2019-03-23T21:50:55.859Z,22.87
2019-03-23T21:53:51.436Z,20.70
2019-03-23T21:56:48.684Z,20.63
2019-03-23T21:59:46.828Z,20.63
2019-03-23T22:02:42.914Z,20.53
2019-03-23T22:05:39.761Z,20.40
2019-03-23T22:08:35.618Z,19.97
2019-03-23T22:11:32.956Z,19.47
2019-03-23T22:14:29.228Z,18.80
2019-03-23T22:17:26.619Z,18.93
2019-03-23T22:20:23.928Z,19.20
2019-03-23T22:23:19.996Z,20.70
2019-03-23T22:26:18.357Z,19.00
2019-03-23T22:29:13.831Z,20.13
2019-03-23T22:32:11.070Z,19.20
2019-03-23T22:35:07.178Z,19.53
2019-03-23T22:38:05.554Z,18.80
2019-03-23T22:41:01.789Z,19.57
2019-03-23T22:43:58.936Z,19.23
2019-03-23T22:46:56.377Z,19.57
2019-03-23T22:49:53.472Z,19.17
2019-03-23T22:52:50.960Z,19.30
2019-03-23T22:55:48.164Z,19.50
2019-03-23T22:58:45.974Z,19.20
2019-03-23T23:01:41.907Z,19.13
2019-03-23T23:04:38.964Z,18.70
2019-03-23T23:07:36.187Z,18.20
2019-03-23T23:10:31.805Z,18.80
2019-03-23T23:13:28.938Z,20.03
2019-03-23T23:16:25.134Z,20.60
2019-03-23T23:19:21.378Z,19.57
2019-03-23T23:22:17.806Z,20.07
2019-03-23T23:25:15.110Z,19.50
2019-03-23T23:28:12.266Z,20.03
2019-03-23T23:31:09.716Z,19.40
2019-03-23T23:34:07.137Z,18.50
2019-03-23T23:37:04.441Z,20.90
2019-03-23T23:40:01.664Z,18.80
2019-03-23T23:42:57.729Z,19.57
2019-03-23T23:45:55.953Z,18.95
2019-03-23T23:48:52.186Z,19.30
2019-03-23T23:51:50.498Z,19.73
2019-03-23T23:54:45.945Z,18.00
2019-03-23T23:57:44.941Z,18.70
